sensor_id;sensor_type;location;lat;lon;timestamp;temperature;humidity
4354;DHT22;11018;51.258;6.806;2023-07-31T00:02:14;17.60;80.90
4354;DHT22;11018;51.258;6.806;2023-07-31T00:04:40;17.50;78.10
4354;DHT22;11018;51.258;6.806;2023-07-31T00:07:05;17.60;78.10
4354;DHT22;11018;51.258;6.806;2023-07-31T00:09:32;17.60;78.60
4354;DHT22;11018;51.258;6.806;2023-07-31T00:11:58;17.60;78.80
4354;DHT22;11018;51.258;6.806;2023-07-31T00:14:23;17.60;77.20
4354;DHT22;11018;51.258;6.806;2023-07-31T00:16:49;17.60;75.70
4354;DHT22;11018;51.258;6.806;2023-07-31T00:19:15;17.70;77.30
4354;DHT22;11018;51.258;6.806;2023-07-31T00:21:40;17.60;77.10
4354;DHT22;11018;51.258;6.806;2023-07-31T00:24:06;17.60;75.10
4354;DHT22;11018;51.258;6.806;2023-07-31T00:26:33;17.60;75.50
4354;DHT22;11018;51.258;6.806;2023-07-31T00:28:59;17.60;77.30
4354;DHT22;11018;51.258;6.806;2023-07-31T00:31:24;17.50;77.40
4354;DHT22;11018;51.258;6.806;2023-07-31T00:33:50;17.60;76.90
4354;DHT22;11018;51.258;6.806;2023-07-31T00:36:15;17.60;76.80
4354;DHT22;11018;51.258;6.806;2023-07-31T00:38:41;17.60;73.90
4354;DHT22;11018;51.258;6.806;2023-07-31T00:41:06;17.70;74.10
4354;DHT22;11018;51.258;6.806;2023-07-31T00:43:32;17.70;73.00
4354;DHT22;11018;51.258;6.806;2023-07-31T00:45:57;17.70;72.90
4354;DHT22;11018;51.258;6.806;2023-07-31T00:48:23;17.70;72.90
4354;DHT22;11018;51.258;6.806;2023-07-31T00:50:49;17.70;71.90
4354;DHT22;11018;51.258;6.806;2023-07-31T00:53:15;17.70;71.90
4354;DHT22;11018;51.258;6.806;2023-07-31T00:55:41;17.70;72.10
4354;DHT22;11018;51.258;6.806;2023-07-31T00:58:07;17.70;72.40
4354;DHT22;11018;51.258;6.806;2023-07-31T01:00:33;17.70;69.40
4354;DHT22;11018;51.258;6.806;2023-07-31T01:02:58;17.70;70.20
4354;DHT22;11018;51.258;6.806;2023-07-31T01:08:44;17.70;68.70
4354;DHT22;11018;51.258;6.806;2023-07-31T01:11:22;17.70;69.30
4354;DHT22;11018;51.258;6.806;2023-07-31T01:13:51;17.60;69.70
4354;DHT22;11018;51.258;6.806;2023-07-31T01:16:16;17.60;67.90
4354;DHT22;11018;51.258;6.806;2023-07-31T01:18:42;17.60;67.60
4354;DHT22;11018;51.258;6.806;2023-07-31T01:27:12;17.80;67.90
4354;DHT22;11018;51.258;6.806;2023-07-31T01:29:47;17.70;66.30
4354;DHT22;11018;51.258;6.806;2023-07-31T01:32:14;17.70;66.40
4354;DHT22;11018;51.258;6.806;2023-07-31T01:34:43;17.80;64.60
4354;DHT22;11018;51.258;6.806;2023-07-31T01:37:09;17.70;64.80
4354;DHT22;11018;51.258;6.806;2023-07-31T01:39:35;17.70;64.40
4354;DHT22;11018;51.258;6.806;2023-07-31T01:42:00;17.80;63.60
4354;DHT22;11018;51.258;6.806;2023-07-31T01:44:26;17.80;65.40
4354;DHT22;11018;51.258;6.806;2023-07-31T01:46:51;17.70;64.40
4354;DHT22;11018;51.258;6.806;2023-07-31T01:49:17;17.80;62.70
4354;DHT22;11018;51.258;6.806;2023-07-31T01:51:43;17.80;61.70
4354;DHT22;11018;51.258;6.806;2023-07-31T01:54:08;17.90;60.00
4354;DHT22;11018;51.258;6.806;2023-07-31T01:56:34;17.80;61.10
4354;DHT22;11018;51.258;6.806;2023-07-31T01:58:59;17.80;60.30
4354;DHT22;11018;51.258;6.806;2023-07-31T02:01:25;17.70;60.50
4354;DHT22;11018;51.258;6.806;2023-07-31T02:03:50;17.80;59.90
4354;DHT22;11018;51.258;6.806;2023-07-31T02:06:16;17.80;60.60
4354;DHT22;11018;51.258;6.806;2023-07-31T02:08:42;17.70;60.70
4354;DHT22;11018;51.258;6.806;2023-07-31T02:11:07;17.70;60.90
4354;DHT22;11018;51.258;6.806;2023-07-31T02:13:33;17.70;59.80
4354;DHT22;11018;51.258;6.806;2023-07-31T02:15:58;17.70;61.10
4354;DHT22;11018;51.258;6.806;2023-07-31T02:18:24;17.70;60.70
4354;DHT22;11018;51.258;6.806;2023-07-31T02:20:50;17.70;60.60
4354;DHT22;11018;51.258;6.806;2023-07-31T02:23:17;17.70;60.60
4354;DHT22;11018;51.258;6.806;2023-07-31T02:25:43;17.70;60.10
4354;DHT22;11018;51.258;6.806;2023-07-31T02:28:09;17.80;59.70
4354;DHT22;11018;51.258;6.806;2023-07-31T02:30:34;17.80;59.60
4354;DHT22;11018;51.258;6.806;2023-07-31T02:33:00;17.80;60.30
4354;DHT22;11018;51.258;6.806;2023-07-31T02:35:25;17.70;61.10
4354;DHT22;11018;51.258;6.806;2023-07-31T02:37:51;17.80;60.60
4354;DHT22;11018;51.258;6.806;2023-07-31T02:40:17;17.80;59.90
4354;DHT22;11018;51.258;6.806;2023-07-31T02:42:42;17.80;60.40
4354;DHT22;11018;51.258;6.806;2023-07-31T02:45:08;17.80;61.10
4354;DHT22;11018;51.258;6.806;2023-07-31T02:47:34;17.80;61.30
4354;DHT22;11018;51.258;6.806;2023-07-31T02:50:00;17.80;61.90
4354;DHT22;11018;51.258;6.806;2023-07-31T02:52:25;17.80;62.80
4354;DHT22;11018;51.258;6.806;2023-07-31T02:54:51;17.80;62.00
4354;DHT22;11018;51.258;6.806;2023-07-31T02:57:17;17.90;62.40
4354;DHT22;11018;51.258;6.806;2023-07-31T02:59:42;17.90;62.20
4354;DHT22;11018;51.258;6.806;2023-07-31T03:02:08;17.80;63.70
4354;DHT22;11018;51.258;6.806;2023-07-31T03:04:34;17.80;63.70
4354;DHT22;11018;51.258;6.806;2023-07-31T03:06:59;17.90;63.90
4354;DHT22;11018;51.258;6.806;2023-07-31T03:09:25;17.80;64.30
4354;DHT22;11018;51.258;6.806;2023-07-31T03:11:50;17.80;64.70
4354;DHT22;11018;51.258;6.806;2023-07-31T03:14:16;17.80;64.10
4354;DHT22;11018;51.258;6.806;2023-07-31T03:16:41;17.80;63.60
4354;DHT22;11018;51.258;6.806;2023-07-31T03:19:07;17.90;64.40
4354;DHT22;11018;51.258;6.806;2023-07-31T03:21:32;17.90;62.60
4354;DHT22;11018;51.258;6.806;2023-07-31T03:23:58;18.00;62.10
4354;DHT22;11018;51.258;6.806;2023-07-31T03:26:23;18.00;62.10
4354;DHT22;11018;51.258;6.806;2023-07-31T03:28:49;18.00;62.10
4354;DHT22;11018;51.258;6.806;2023-07-31T03:31:15;18.00;62.30
4354;DHT22;11018;51.258;6.806;2023-07-31T03:33:40;18.00;61.90
4354;DHT22;11018;51.258;6.806;2023-07-31T03:36:06;18.00;63.30
4354;DHT22;11018;51.258;6.806;2023-07-31T03:38:31;17.90;63.30
4354;DHT22;11018;51.258;6.806;2023-07-31T03:40:57;18.00;62.00
4354;DHT22;11018;51.258;6.806;2023-07-31T03:43:24;18.00;61.90
4354;DHT22;11018;51.258;6.806;2023-07-31T03:45:50;18.00;61.50
4354;DHT22;11018;51.258;6.806;2023-07-31T03:48:16;18.00;61.00
4354;DHT22;11018;51.258;6.806;2023-07-31T03:50:41;18.00;62.10
4354;DHT22;11018;51.258;6.806;2023-07-31T03:53:07;18.00;60.90
4354;DHT22;11018;51.258;6.806;2023-07-31T03:55:33;18.00;61.60
4354;DHT22;11018;51.258;6.806;2023-07-31T03:57:58;18.00;62.40
4354;DHT22;11018;51.258;6.806;2023-07-31T04:00:26;18.00;62.30
4354;DHT22;11018;51.258;6.806;2023-07-31T04:02:52;18.00;61.40
4354;DHT22;11018;51.258;6.806;2023-07-31T04:05:18;18.00;61.70
4354;DHT22;11018;51.258;6.806;2023-07-31T04:07:43;18.00;62.70
4354;DHT22;11018;51.258;6.806;2023-07-31T04:10:09;17.90;62.70
4354;DHT22;11018;51.258;6.806;2023-07-31T04:12:35;18.00;63.50
4354;DHT22;11018;51.258;6.806;2023-07-31T04:15:00;18.00;62.90
4354;DHT22;11018;51.258;6.806;2023-07-31T04:17:26;18.00;63.90
4354;DHT22;11018;51.258;6.806;2023-07-31T04:19:51;18.10;63.20
4354;DHT22;11018;51.258;6.806;2023-07-31T04:22:17;18.10;64.70
4354;DHT22;11018;51.258;6.806;2023-07-31T04:24:42;18.10;64.80
4354;DHT22;11018;51.258;6.806;2023-07-31T04:27:08;18.10;65.40
4354;DHT22;11018;51.258;6.806;2023-07-31T04:29:34;18.10;64.10
4354;DHT22;11018;51.258;6.806;2023-07-31T04:31:59;18.10;65.10
4354;DHT22;11018;51.258;6.806;2023-07-31T04:34:25;18.10;65.40
4354;DHT22;11018;51.258;6.806;2023-07-31T04:36:50;18.00;65.60
4354;DHT22;11018;51.258;6.806;2023-07-31T04:39:16;18.10;65.60
4354;DHT22;11018;51.258;6.806;2023-07-31T04:41:41;18.10;66.00
4354;DHT22;11018;51.258;6.806;2023-07-31T04:44:07;18.20;65.00
4354;DHT22;11018;51.258;6.806;2023-07-31T04:46:32;18.10;65.50
4354;DHT22;11018;51.258;6.806;2023-07-31T04:48:58;18.10;64.30
4354;DHT22;11018;51.258;6.806;2023-07-31T04:51:23;18.20;65.40
4354;DHT22;11018;51.258;6.806;2023-07-31T04:53:50;18.20;63.80
4354;DHT22;11018;51.258;6.806;2023-07-31T04:56:16;18.30;63.00
4354;DHT22;11018;51.258;6.806;2023-07-31T04:58:41;18.40;61.30
4354;DHT22;11018;51.258;6.806;2023-07-31T05:01:07;18.40;62.90
4354;DHT22;11018;51.258;6.806;2023-07-31T05:03:33;18.50;61.00
4354;DHT22;11018;51.258;6.806;2023-07-31T05:05:58;18.60;61.30
4354;DHT22;11018;51.258;6.806;2023-07-31T05:08:24;18.70;59.60
4354;DHT22;11018;51.258;6.806;2023-07-31T05:10:50;18.70;59.30
4354;DHT22;11018;51.258;6.806;2023-07-31T05:13:16;18.70;58.60
4354;DHT22;11018;51.258;6.806;2023-07-31T05:15:41;18.70;59.30
4354;DHT22;11018;51.258;6.806;2023-07-31T05:18:07;18.70;58.30
4354;DHT22;11018;51.258;6.806;2023-07-31T05:20:32;18.70;58.20
4354;DHT22;11018;51.258;6.806;2023-07-31T05:22:58;18.90;56.80
4354;DHT22;11018;51.258;6.806;2023-07-31T05:25:24;18.90;57.20
4354;DHT22;11018;51.258;6.806;2023-07-31T05:27:49;18.90;56.50
4354;DHT22;11018;51.258;6.806;2023-07-31T05:30:15;18.80;57.70
4354;DHT22;11018;51.258;6.806;2023-07-31T05:32:40;18.70;56.70
4354;DHT22;11018;51.258;6.806;2023-07-31T05:35:06;18.80;56.10
4354;DHT22;11018;51.258;6.806;2023-07-31T05:37:32;18.90;55.50
4354;DHT22;11018;51.258;6.806;2023-07-31T05:39:58;18.80;54.90
4354;DHT22;11018;51.258;6.806;2023-07-31T05:42:23;18.90;54.80
4354;DHT22;11018;51.258;6.806;2023-07-31T05:44:49;19.00;54.50
4354;DHT22;11018;51.258;6.806;2023-07-31T05:47:14;19.00;54.50
4354;DHT22;11018;51.258;6.806;2023-07-31T05:49:40;19.10;55.20
4354;DHT22;11018;51.258;6.806;2023-07-31T05:52:06;19.10;53.60
4354;DHT22;11018;51.258;6.806;2023-07-31T05:54:32;19.10;53.90
4354;DHT22;11018;51.258;6.806;2023-07-31T05:56:58;19.20;52.70
4354;DHT22;11018;51.258;6.806;2023-07-31T05:59:23;19.20;52.70
4354;DHT22;11018;51.258;6.806;2023-07-31T06:01:49;19.10;52.20
4354;DHT22;11018;51.258;6.806;2023-07-31T06:04:15;19.20;52.00
4354;DHT22;11018;51.258;6.806;2023-07-31T06:06:40;19.10;52.90
4354;DHT22;11018;51.258;6.806;2023-07-31T06:09:06;19.10;53.10
4354;DHT22;11018;51.258;6.806;2023-07-31T06:11:32;19.10;54.00
4354;DHT22;11018;51.258;6.806;2023-07-31T06:13:58;19.10;54.50
4354;DHT22;11018;51.258;6.806;2023-07-31T06:16:24;18.90;57.20
4354;DHT22;11018;51.258;6.806;2023-07-31T06:18:50;18.90;59.20
4354;DHT22;11018;51.258;6.806;2023-07-31T06:21:16;18.90;60.00
4354;DHT22;11018;51.258;6.806;2023-07-31T06:23:42;18.90;59.60
4354;DHT22;11018;51.258;6.806;2023-07-31T06:26:08;18.90;59.00
4354;DHT22;11018;51.258;6.806;2023-07-31T06:28:34;18.80;60.50
4354;DHT22;11018;51.258;6.806;2023-07-31T06:30:59;18.70;61.90
4354;DHT22;11018;51.258;6.806;2023-07-31T06:33:26;18.70;63.10
4354;DHT22;11018;51.258;6.806;2023-07-31T06:35:52;18.80;61.30
4354;DHT22;11018;51.258;6.806;2023-07-31T06:38:27;18.90;62.40
4354;DHT22;11018;51.258;6.806;2023-07-31T06:40:53;18.80;63.40
4354;DHT22;11018;51.258;6.806;2023-07-31T06:43:19;18.70;64.90
4354;DHT22;11018;51.258;6.806;2023-07-31T06:45:44;18.60;65.10
4354;DHT22;11018;51.258;6.806;2023-07-31T06:48:11;18.60;66.90
4354;DHT22;11018;51.258;6.806;2023-07-31T06:50:36;18.60;67.30
4354;DHT22;11018;51.258;6.806;2023-07-31T06:53:02;18.60;67.60
4354;DHT22;11018;51.258;6.806;2023-07-31T06:55:28;18.60;65.80
4354;DHT22;11018;51.258;6.806;2023-07-31T06:57:55;18.70;64.40
4354;DHT22;11018;51.258;6.806;2023-07-31T07:00:21;18.70;63.20
4354;DHT22;11018;51.258;6.806;2023-07-31T07:02:48;18.70;63.10
4354;DHT22;11018;51.258;6.806;2023-07-31T07:05:14;18.80;63.10
4354;DHT22;11018;51.258;6.806;2023-07-31T07:07:40;18.80;63.00
4354;DHT22;11018;51.258;6.806;2023-07-31T07:10:07;18.60;64.00
4354;DHT22;11018;51.258;6.806;2023-07-31T07:12:33;18.60;65.10
4354;DHT22;11018;51.258;6.806;2023-07-31T07:14:59;18.60;66.70
4354;DHT22;11018;51.258;6.806;2023-07-31T07:17:28;18.60;67.10
4354;DHT22;11018;51.258;6.806;2023-07-31T07:19:53;18.50;67.50
4354;DHT22;11018;51.258;6.806;2023-07-31T07:22:20;18.50;68.60
4354;DHT22;11018;51.258;6.806;2023-07-31T07:24:46;18.50;65.50
4354;DHT22;11018;51.258;6.806;2023-07-31T07:27:11;18.50;68.10
4354;DHT22;11018;51.258;6.806;2023-07-31T07:29:41;18.40;70.00
4354;DHT22;11018;51.258;6.806;2023-07-31T07:32:06;18.40;69.70
4354;DHT22;11018;51.258;6.806;2023-07-31T07:34:32;18.30;71.40
4354;DHT22;11018;51.258;6.806;2023-07-31T07:36:58;18.30;72.50
4354;DHT22;11018;51.258;6.806;2023-07-31T07:39:23;18.40;72.60
4354;DHT22;11018;51.258;6.806;2023-07-31T07:41:48;18.50;73.80
4354;DHT22;11018;51.258;6.806;2023-07-31T07:44:14;18.60;66.70
4354;DHT22;11018;51.258;6.806;2023-07-31T07:46:40;18.70;68.00
4354;DHT22;11018;51.258;6.806;2023-07-31T07:49:06;18.90;66.60
4354;DHT22;11018;51.258;6.806;2023-07-31T07:51:32;18.90;65.60
4354;DHT22;11018;51.258;6.806;2023-07-31T07:53:58;18.90;66.20
4354;DHT22;11018;51.258;6.806;2023-07-31T07:56:25;18.80;66.50
4354;DHT22;11018;51.258;6.806;2023-07-31T07:58:51;18.80;68.60
4354;DHT22;11018;51.258;6.806;2023-07-31T08:01:17;18.90;67.30
4354;DHT22;11018;51.258;6.806;2023-07-31T08:03:42;19.00;64.20
4354;DHT22;11018;51.258;6.806;2023-07-31T08:06:09;19.10;62.10
4354;DHT22;11018;51.258;6.806;2023-07-31T08:08:35;19.00;62.20
4354;DHT22;11018;51.258;6.806;2023-07-31T08:11:01;19.00;63.80
4354;DHT22;11018;51.258;6.806;2023-07-31T08:13:26;18.90;67.60
4354;DHT22;11018;51.258;6.806;2023-07-31T08:15:52;19.00;68.50
4354;DHT22;11018;51.258;6.806;2023-07-31T08:18:18;19.00;63.70
4354;DHT22;11018;51.258;6.806;2023-07-31T08:20:44;19.20;62.70
4354;DHT22;11018;51.258;6.806;2023-07-31T08:23:09;19.40;59.90
4354;DHT22;11018;51.258;6.806;2023-07-31T08:25:36;19.60;59.60
4354;DHT22;11018;51.258;6.806;2023-07-31T08:28:02;19.70;57.30
4354;DHT22;11018;51.258;6.806;2023-07-31T08:30:28;19.70;55.90
4354;DHT22;11018;51.258;6.806;2023-07-31T08:32:53;19.70;57.30
4354;DHT22;11018;51.258;6.806;2023-07-31T08:35:19;19.80;54.90
4354;DHT22;11018;51.258;6.806;2023-07-31T08:37:44;19.80;55.20
4354;DHT22;11018;51.258;6.806;2023-07-31T08:40:10;19.70;56.90
4354;DHT22;11018;51.258;6.806;2023-07-31T08:42:46;19.60;57.20
4354;DHT22;11018;51.258;6.806;2023-07-31T08:45:14;19.40;58.50
4354;DHT22;11018;51.258;6.806;2023-07-31T08:47:44;19.40;58.70
4354;DHT22;11018;51.258;6.806;2023-07-31T08:50:12;19.10;58.90
4354;DHT22;11018;51.258;6.806;2023-07-31T08:52:38;19.00;61.20
4354;DHT22;11018;51.258;6.806;2023-07-31T08:55:04;18.90;65.10
4354;DHT22;11018;51.258;6.806;2023-07-31T08:57:30;18.80;64.80
4354;DHT22;11018;51.258;6.806;2023-07-31T08:59:57;18.70;66.30
4354;DHT22;11018;51.258;6.806;2023-07-31T09:02:23;18.70;66.40
4354;DHT22;11018;51.258;6.806;2023-07-31T09:04:50;18.70;68.10
4354;DHT22;11018;51.258;6.806;2023-07-31T09:07:16;18.70;69.30
4354;DHT22;11018;51.258;6.806;2023-07-31T09:09:41;18.80;68.90
4354;DHT22;11018;51.258;6.806;2023-07-31T09:12:07;19.00;65.90
4354;DHT22;11018;51.258;6.806;2023-07-31T09:14:33;19.10;65.00
4354;DHT22;11018;51.258;6.806;2023-07-31T09:16:59;19.20;63.70
4354;DHT22;11018;51.258;6.806;2023-07-31T09:19:26;19.20;63.50
4354;DHT22;11018;51.258;6.806;2023-07-31T09:21:52;19.20;62.60
4354;DHT22;11018;51.258;6.806;2023-07-31T09:24:31;19.20;63.00
4354;DHT22;11018;51.258;6.806;2023-07-31T09:26:58;19.30;64.80
4354;DHT22;11018;51.258;6.806;2023-07-31T09:29:24;19.40;65.10
4354;DHT22;11018;51.258;6.806;2023-07-31T09:31:51;19.60;63.50
4354;DHT22;11018;51.258;6.806;2023-07-31T09:34:17;19.60;60.00
4354;DHT22;11018;51.258;6.806;2023-07-31T09:36:48;19.40;62.30
4354;DHT22;11018;51.258;6.806;2023-07-31T09:39:15;19.40;62.60
4354;DHT22;11018;51.258;6.806;2023-07-31T09:41:47;19.30;64.60
4354;DHT22;11018;51.258;6.806;2023-07-31T09:44:13;19.30;65.40
4354;DHT22;11018;51.258;6.806;2023-07-31T09:46:38;19.40;66.90
4354;DHT22;11018;51.258;6.806;2023-07-31T09:49:11;19.50;65.90
4354;DHT22;11018;51.258;6.806;2023-07-31T09:51:39;19.60;63.70
4354;DHT22;11018;51.258;6.806;2023-07-31T09:54:12;19.60;64.10
4354;DHT22;11018;51.258;6.806;2023-07-31T09:56:48;19.60;63.10
4354;DHT22;11018;51.258;6.806;2023-07-31T09:59:18;19.60;61.50
4354;DHT22;11018;51.258;6.806;2023-07-31T10:01:46;19.70;59.70
4354;DHT22;11018;51.258;6.806;2023-07-31T10:04:12;19.80;61.80
4354;DHT22;11018;51.258;6.806;2023-07-31T10:06:40;19.80;59.70
4354;DHT22;11018;51.258;6.806;2023-07-31T10:09:10;19.90;59.80
4354;DHT22;11018;51.258;6.806;2023-07-31T10:11:56;19.60;62.40
4354;DHT22;11018;51.258;6.806;2023-07-31T10:14:26;19.50;63.50
4354;DHT22;11018;51.258;6.806;2023-07-31T10:16:52;19.30;66.20
4354;DHT22;11018;51.258;6.806;2023-07-31T10:19:19;19.20;68.00
4354;DHT22;11018;51.258;6.806;2023-07-31T10:21:45;19.20;67.20
4354;DHT22;11018;51.258;6.806;2023-07-31T10:24:11;19.30;66.30
4354;DHT22;11018;51.258;6.806;2023-07-31T10:26:38;19.30;67.20
4354;DHT22;11018;51.258;6.806;2023-07-31T10:29:05;19.30;67.50
4354;DHT22;11018;51.258;6.806;2023-07-31T10:31:32;19.30;66.30
4354;DHT22;11018;51.258;6.806;2023-07-31T10:33:58;19.60;61.70
4354;DHT22;11018;51.258;6.806;2023-07-31T10:36:28;19.80;59.50
4354;DHT22;11018;51.258;6.806;2023-07-31T10:38:55;19.90;59.20
4354;DHT22;11018;51.258;6.806;2023-07-31T10:41:29;20.20;57.10
4354;DHT22;11018;51.258;6.806;2023-07-31T10:43:58;20.40;55.50
4354;DHT22;11018;51.258;6.806;2023-07-31T10:46:23;20.70;54.30
4354;DHT22;11018;51.258;6.806;2023-07-31T10:48:57;21.00;51.20
4354;DHT22;11018;51.258;6.806;2023-07-31T10:51:33;21.30;48.10
4354;DHT22;11018;51.258;6.806;2023-07-31T10:54:16;21.30;48.10
4354;DHT22;11018;51.258;6.806;2023-07-31T10:56:46;21.20;49.60
4354;DHT22;11018;51.258;6.806;2023-07-31T10:59:15;21.00;49.10
4354;DHT22;11018;51.258;6.806;2023-07-31T11:01:56;20.80;51.70
4354;DHT22;11018;51.258;6.806;2023-07-31T11:04:29;20.60;51.90
4354;DHT22;11018;51.258;6.806;2023-07-31T11:07:01;20.50;52.00
4354;DHT22;11018;51.258;6.806;2023-07-31T11:09:29;20.50;50.40
4354;DHT22;11018;51.258;6.806;2023-07-31T11:11:56;20.60;52.60
4354;DHT22;11018;51.258;6.806;2023-07-31T11:14:22;20.60;51.00
4354;DHT22;11018;51.258;6.806;2023-07-31T11:16:50;20.80;50.00
4354;DHT22;11018;51.258;6.806;2023-07-31T11:19:22;20.80;48.30
4354;DHT22;11018;51.258;6.806;2023-07-31T11:21:49;20.80;48.80
4354;DHT22;11018;51.258;6.806;2023-07-31T11:24:14;20.80;47.30
4354;DHT22;11018;51.258;6.806;2023-07-31T11:26:53;20.50;48.40
4354;DHT22;11018;51.258;6.806;2023-07-31T11:29:19;20.60;49.10
4354;DHT22;11018;51.258;6.806;2023-07-31T11:31:46;20.80;48.60
4354;DHT22;11018;51.258;6.806;2023-07-31T11:34:13;21.10;46.00
4354;DHT22;11018;51.258;6.806;2023-07-31T11:36:38;21.00;46.30
4354;DHT22;11018;51.258;6.806;2023-07-31T11:39:10;21.10;46.20
4354;DHT22;11018;51.258;6.806;2023-07-31T11:41:40;21.10;45.60
4354;DHT22;11018;51.258;6.806;2023-07-31T11:44:05;21.20;46.20
4354;DHT22;11018;51.258;6.806;2023-07-31T11:46:31;21.20;45.60
4354;DHT22;11018;51.258;6.806;2023-07-31T11:49:00;21.50;44.60
4354;DHT22;11018;51.258;6.806;2023-07-31T11:51:27;21.60;43.90
4354;DHT22;11018;51.258;6.806;2023-07-31T11:53:57;21.70;43.20
4354;DHT22;11018;51.258;6.806;2023-07-31T11:56:23;21.70;43.10
4354;DHT22;11018;51.258;6.806;2023-07-31T11:58:57;21.50;42.70
4354;DHT22;11018;51.258;6.806;2023-07-31T12:01:24;21.20;44.10
4354;DHT22;11018;51.258;6.806;2023-07-31T12:03:50;21.00;44.80
4354;DHT22;11018;51.258;6.806;2023-07-31T12:06:16;20.90;45.60
4354;DHT22;11018;51.258;6.806;2023-07-31T12:08:42;20.80;46.10
4354;DHT22;11018;51.258;6.806;2023-07-31T12:11:09;20.70;46.70
4354;DHT22;11018;51.258;6.806;2023-07-31T12:13:43;20.70;46.90
4354;DHT22;11018;51.258;6.806;2023-07-31T12:16:08;20.50;48.00
4354;DHT22;11018;51.258;6.806;2023-07-31T12:18:36;20.50;47.70
4354;DHT22;11018;51.258;6.806;2023-07-31T12:21:04;20.50;48.10
4354;DHT22;11018;51.258;6.806;2023-07-31T12:23:34;20.40;48.50
4354;DHT22;11018;51.258;6.806;2023-07-31T12:26:01;20.50;48.00
4354;DHT22;11018;51.258;6.806;2023-07-31T12:28:26;20.50;47.40
4354;DHT22;11018;51.258;6.806;2023-07-31T12:31:00;20.60;48.10
4354;DHT22;11018;51.258;6.806;2023-07-31T12:33:31;20.80;47.30
4354;DHT22;11018;51.258;6.806;2023-07-31T12:35:58;20.80;48.00
4354;DHT22;11018;51.258;6.806;2023-07-31T12:38:23;20.90;49.20
4354;DHT22;11018;51.258;6.806;2023-07-31T12:40:49;21.00;49.00
4354;DHT22;11018;51.258;6.806;2023-07-31T12:43:15;20.80;52.10
4354;DHT22;11018;51.258;6.806;2023-07-31T12:45:41;20.80;51.30
4354;DHT22;11018;51.258;6.806;2023-07-31T12:48:06;20.90;52.60
4354;DHT22;11018;51.258;6.806;2023-07-31T12:50:32;21.00;51.20
4354;DHT22;11018;51.258;6.806;2023-07-31T12:52:57;21.10;50.90
4354;DHT22;11018;51.258;6.806;2023-07-31T12:55:23;21.10;50.20
4354;DHT22;11018;51.258;6.806;2023-07-31T12:57:50;21.00;48.70
4354;DHT22;11018;51.258;6.806;2023-07-31T13:00:16;21.00;49.90
4354;DHT22;11018;51.258;6.806;2023-07-31T13:02:42;21.00;49.30
4354;DHT22;11018;51.258;6.806;2023-07-31T13:05:08;21.00;47.90
4354;DHT22;11018;51.258;6.806;2023-07-31T13:07:34;20.90;49.60
4354;DHT22;11018;51.258;6.806;2023-07-31T13:09:59;20.90;48.10
4354;DHT22;11018;51.258;6.806;2023-07-31T13:12:25;20.80;48.50
4354;DHT22;11018;51.258;6.806;2023-07-31T13:14:51;20.70;49.90
4354;DHT22;11018;51.258;6.806;2023-07-31T13:17:17;20.70;50.10
4354;DHT22;11018;51.258;6.806;2023-07-31T13:19:43;20.70;49.80
4354;DHT22;11018;51.258;6.806;2023-07-31T13:22:08;20.70;49.50
4354;DHT22;11018;51.258;6.806;2023-07-31T13:24:34;20.80;49.30
4354;DHT22;11018;51.258;6.806;2023-07-31T13:26:59;20.90;49.80
4354;DHT22;11018;51.258;6.806;2023-07-31T13:29:25;21.10;47.30
4354;DHT22;11018;51.258;6.806;2023-07-31T13:31:52;21.20;47.70
4354;DHT22;11018;51.258;6.806;2023-07-31T13:34:18;21.70;45.60
4354;DHT22;11018;51.258;6.806;2023-07-31T13:36:43;22.10;41.70
4354;DHT22;11018;51.258;6.806;2023-07-31T13:39:09;22.40;38.80
4354;DHT22;11018;51.258;6.806;2023-07-31T13:41:34;22.50;37.60
4354;DHT22;11018;51.258;6.806;2023-07-31T13:44:00;22.60;36.50
4354;DHT22;11018;51.258;6.806;2023-07-31T13:46:26;22.70;37.00
4354;DHT22;11018;51.258;6.806;2023-07-31T13:48:51;23.00;35.60
4354;DHT22;11018;51.258;6.806;2023-07-31T13:51:20;23.00;35.30
4354;DHT22;11018;51.258;6.806;2023-07-31T13:53:45;22.80;34.80
4354;DHT22;11018;51.258;6.806;2023-07-31T13:56:11;22.80;35.30
4354;DHT22;11018;51.258;6.806;2023-07-31T13:58:36;22.80;35.40
4354;DHT22;11018;51.258;6.806;2023-07-31T14:01:02;22.80;35.40
4354;DHT22;11018;51.258;6.806;2023-07-31T14:03:28;22.60;35.80
4354;DHT22;11018;51.258;6.806;2023-07-31T14:05:55;22.40;36.70
4354;DHT22;11018;51.258;6.806;2023-07-31T14:08:21;22.20;37.30
4354;DHT22;11018;51.258;6.806;2023-07-31T14:10:46;22.00;38.10
4354;DHT22;11018;51.258;6.806;2023-07-31T14:13:12;21.90;38.30
4354;DHT22;11018;51.258;6.806;2023-07-31T14:15:39;21.80;38.30
4354;DHT22;11018;51.258;6.806;2023-07-31T14:18:04;21.60;38.90
4354;DHT22;11018;51.258;6.806;2023-07-31T14:20:30;21.50;39.50
4354;DHT22;11018;51.258;6.806;2023-07-31T14:22:56;21.40;40.40
4354;DHT22;11018;51.258;6.806;2023-07-31T14:25:21;21.40;40.70
4354;DHT22;11018;51.258;6.806;2023-07-31T14:27:47;21.20;41.40
4354;DHT22;11018;51.258;6.806;2023-07-31T14:30:12;21.20;41.80
4354;DHT22;11018;51.258;6.806;2023-07-31T14:32:38;21.10;43.00
4354;DHT22;11018;51.258;6.806;2023-07-31T14:35:04;21.10;43.00
4354;DHT22;11018;51.258;6.806;2023-07-31T14:37:43;21.10;42.00
4354;DHT22;11018;51.258;6.806;2023-07-31T14:40:10;20.90;44.10
4354;DHT22;11018;51.258;6.806;2023-07-31T14:42:37;20.90;44.60
4354;DHT22;11018;51.258;6.806;2023-07-31T14:45:06;20.80;45.20
4354;DHT22;11018;51.258;6.806;2023-07-31T14:47:32;20.90;44.60
4354;DHT22;11018;51.258;6.806;2023-07-31T14:49:58;20.80;43.90
4354;DHT22;11018;51.258;6.806;2023-07-31T14:52:24;20.80;43.40
4354;DHT22;11018;51.258;6.806;2023-07-31T14:54:50;20.90;43.70
4354;DHT22;11018;51.258;6.806;2023-07-31T14:57:15;20.90;41.40
4354;DHT22;11018;51.258;6.806;2023-07-31T14:59:41;21.00;40.80
4354;DHT22;11018;51.258;6.806;2023-07-31T15:02:08;21.10;40.60
4354;DHT22;11018;51.258;6.806;2023-07-31T15:04:34;21.30;40.30
4354;DHT22;11018;51.258;6.806;2023-07-31T15:06:59;21.30;39.80
4354;DHT22;11018;51.258;6.806;2023-07-31T15:09:25;21.20;39.80
4354;DHT22;11018;51.258;6.806;2023-07-31T15:11:51;21.10;40.40
4354;DHT22;11018;51.258;6.806;2023-07-31T15:14:16;21.10;40.50
4354;DHT22;11018;51.258;6.806;2023-07-31T15:16:42;21.20;40.30
4354;DHT22;11018;51.258;6.806;2023-07-31T15:19:07;21.20;39.80
4354;DHT22;11018;51.258;6.806;2023-07-31T15:21:33;21.20;40.20
4354;DHT22;11018;51.258;6.806;2023-07-31T15:23:58;21.30;39.80
4354;DHT22;11018;51.258;6.806;2023-07-31T15:26:24;21.30;39.50
4354;DHT22;11018;51.258;6.806;2023-07-31T15:28:56;21.40;39.00
4354;DHT22;11018;51.258;6.806;2023-07-31T15:31:21;21.40;39.20
4354;DHT22;11018;51.258;6.806;2023-07-31T15:33:48;21.30;39.00
4354;DHT22;11018;51.258;6.806;2023-07-31T15:36:13;21.30;38.40
4354;DHT22;11018;51.258;6.806;2023-07-31T15:38:39;21.20;38.40
4354;DHT22;11018;51.258;6.806;2023-07-31T15:41:05;21.20;38.70
4354;DHT22;11018;51.258;6.806;2023-07-31T15:43:31;21.20;38.40
4354;DHT22;11018;51.258;6.806;2023-07-31T15:45:57;21.10;38.90
4354;DHT22;11018;51.258;6.806;2023-07-31T15:48:23;21.10;39.80
4354;DHT22;11018;51.258;6.806;2023-07-31T15:50:48;21.10;40.10